createdAt,value
2022-10-06T00:00:46.194Z,18.38
2022-10-06T00:03:15.410Z,18.34
2022-10-06T00:05:44.563Z,18.32
2022-10-06T00:08:14.208Z,18.33
2022-10-06T00:10:42.647Z,18.30
2022-10-06T00:13:11.085Z,18.28
2022-10-06T00:15:40.125Z,18.35
2022-10-06T00:18:15.458Z,18.33
2022-10-06T00:20:46.842Z,18.36
2022-10-06T00:23:14.930Z,18.35
2022-10-06T00:25:44.343Z,18.37
2022-10-06T00:28:14.415Z,18.37
2022-10-06T00:30:43.915Z,18.34
2022-10-06T00:33:16.069Z,18.37
2022-10-06T00:35:45.325Z,18.37
2022-10-06T00:40:54.722Z,18.32
2022-10-06T00:43:50.931Z,18.32
2022-10-06T00:46:29.075Z,18.32
2022-10-06T00:49:04.586Z,18.35
2022-10-06T00:51:35.556Z,18.33
2022-10-06T00:54:06.038Z,18.30
2022-10-06T00:56:45.697Z,18.30
2022-10-06T00:59:16.658Z,18.27
2022-10-06T01:01:51.814Z,18.28
2022-10-06T01:04:24.651Z,18.28
2022-10-06T01:06:59.190Z,18.26
2022-10-06T01:09:29.425Z,18.26
2022-10-06T01:12:03.398Z,18.27
2022-10-06T01:14:35.054Z,18.27
2022-10-06T01:17:07.889Z,18.27
2022-10-06T01:19:48.851Z,18.32
2022-10-06T01:22:18.939Z,18.35
2022-10-06T01:24:52.734Z,18.38
2022-10-06T01:27:23.426Z,18.38
2022-10-06T01:29:54.711Z,18.38
2022-10-06T01:32:28.658Z,18.34
2022-10-06T01:34:56.851Z,18.33
2022-10-06T01:37:25.854Z,18.32
2022-10-06T01:39:58.366Z,18.29
2022-10-06T01:42:31.967Z,18.31
2022-10-06T01:45:01.004Z,18.29
2022-10-06T01:47:29.583Z,18.29
2022-10-06T01:49:58.068Z,18.32
2022-10-06T01:52:26.687Z,18.36
2022-10-06T01:54:56.499Z,18.37
2022-10-06T01:57:24.674Z,18.46
2022-10-06T01:59:54.932Z,18.52
2022-10-06T02:02:23.517Z,18.57
2022-10-06T02:04:51.747Z,18.64
2022-10-06T02:07:20.238Z,18.72
2022-10-06T02:09:50.257Z,18.74
2022-10-06T02:12:26.149Z,18.72
2022-10-06T02:14:54.276Z,18.70
2022-10-06T02:17:23.120Z,18.69
2022-10-06T02:19:57.112Z,18.61
2022-10-06T02:22:25.590Z,18.61
2022-10-06T02:24:54.709Z,18.57
2022-10-06T02:27:25.080Z,18.51
2022-10-06T02:29:53.180Z,18.50
2022-10-06T02:32:21.870Z,18.57
2022-10-06T02:34:50.032Z,18.51
2022-10-06T02:37:18.280Z,18.53
2022-10-06T02:39:46.556Z,18.59
2022-10-06T02:42:15.249Z,18.63
2022-10-06T02:44:44.866Z,18.66
2022-10-06T02:47:14.870Z,18.69
2022-10-06T02:49:43.346Z,18.75
2022-10-06T02:52:14.254Z,18.75
2022-10-06T02:54:48.101Z,18.74
2022-10-06T02:57:23.836Z,18.81
2022-10-06T02:59:53.644Z,18.77
2022-10-06T03:02:22.260Z,18.85
2022-10-06T03:04:50.944Z,18.84
2022-10-06T03:07:19.097Z,18.89
2022-10-06T03:09:47.321Z,18.91
2022-10-06T03:12:15.667Z,18.82
2022-10-06T03:14:45.700Z,18.90
2022-10-06T03:17:15.968Z,18.82
2022-10-06T03:19:44.155Z,18.84
2022-10-06T03:22:17.026Z,18.88
2022-10-06T03:24:45.624Z,18.85
2022-10-06T03:27:13.781Z,18.90
2022-10-06T03:29:42.009Z,18.86
2022-10-06T03:32:14.024Z,18.89
2022-10-06T03:34:44.308Z,18.86
2022-10-06T03:37:13.229Z,18.84
2022-10-06T03:39:42.357Z,18.86
2022-10-06T03:42:12.121Z,18.87
2022-10-06T03:44:43.065Z,18.89
2022-10-06T03:47:16.850Z,18.88
2022-10-06T03:49:47.396Z,18.88
2022-10-06T03:52:15.847Z,18.87
2022-10-06T03:54:44.204Z,18.89
2022-10-06T03:57:12.334Z,18.89
2022-10-06T03:59:49.984Z,18.90
2022-10-06T04:02:18.801Z,18.92
2022-10-06T04:04:50.310Z,18.95
2022-10-06T04:07:24.433Z,18.91
2022-10-06T04:09:53.366Z,18.93
2022-10-06T04:12:22.070Z,18.94
2022-10-06T04:14:51.104Z,18.93
2022-10-06T04:17:23.866Z,18.93
2022-10-06T04:19:53.805Z,18.95
2022-10-06T04:22:22.360Z,18.93
2022-10-06T04:24:51.081Z,18.98
2022-10-06T04:27:34.270Z,18.96
2022-10-06T04:30:03.907Z,18.93
2022-10-06T04:32:32.438Z,18.99
2022-10-06T04:35:07.396Z,18.97
2022-10-06T04:37:35.991Z,18.97
2022-10-06T04:43:26.320Z,18.97
2022-10-06T04:49:54.188Z,18.97
2022-10-06T04:52:31.897Z,19.01
2022-10-06T04:55:04.482Z,18.99
2022-10-06T04:57:45.947Z,19.07
2022-10-06T05:00:48.516Z,19.15
2022-10-06T05:03:43.786Z,19.17
2022-10-06T05:06:17.092Z,19.15
2022-10-06T05:09:05.993Z,19.20
2022-10-06T05:12:31.781Z,19.22
2022-10-06T05:21:51.565Z,19.21
2022-10-06T05:24:36.814Z,19.22
2022-10-06T05:27:06.819Z,19.22
2022-10-06T05:29:36.526Z,19.26
2022-10-06T05:32:07.811Z,19.22
2022-10-06T05:34:36.794Z,19.25
2022-10-06T05:37:09.236Z,19.29
2022-10-06T05:46:06.804Z,19.27
2022-10-06T05:48:36.229Z,19.32
2022-10-06T05:51:07.103Z,19.29
2022-10-06T05:53:39.084Z,19.29
2022-10-06T05:56:19.682Z,19.24
2022-10-06T05:58:53.469Z,19.25
2022-10-06T06:01:30.341Z,19.19
2022-10-06T06:06:57.078Z,19.19
2022-10-06T06:09:36.770Z,19.19
2022-10-06T06:12:10.247Z,19.10
2022-10-06T06:17:18.188Z,18.93
2022-10-06T06:20:04.825Z,18.76
2022-10-06T06:22:33.321Z,18.68
2022-10-06T06:27:45.633Z,18.44
2022-10-06T06:30:14.467Z,18.40
2022-10-06T06:32:43.265Z,18.34
2022-10-06T06:35:14.458Z,18.34
2022-10-06T06:38:05.914Z,18.32
2022-10-06T06:40:35.834Z,18.36
2022-10-06T06:43:06.092Z,18.36
2022-10-06T06:45:38.134Z,18.41
2022-10-06T06:48:09.256Z,18.43
2022-10-06T06:50:37.835Z,18.49
2022-10-06T06:53:11.713Z,18.53
2022-10-06T06:55:51.591Z,18.48
2022-10-06T06:58:58.268Z,18.42
2022-10-06T07:04:22.467Z,18.40
2022-10-06T07:06:58.472Z,18.44
2022-10-06T07:09:32.691Z,18.48
2022-10-06T07:12:01.174Z,18.48
2022-10-06T07:14:31.544Z,18.59
2022-10-06T07:17:17.231Z,18.61
2022-10-06T07:20:03.442Z,18.59
2022-10-06T07:22:52.383Z,18.56
2022-10-06T07:25:26.243Z,18.59
2022-10-06T07:27:56.277Z,18.61
2022-10-06T07:30:29.015Z,18.63
2022-10-06T07:32:57.566Z,18.77
2022-10-06T07:35:26.469Z,18.84
2022-10-06T07:37:54.924Z,18.92
2022-10-06T07:40:23.532Z,19.03
2022-10-06T07:42:52.622Z,19.19
2022-10-06T07:45:42.378Z,19.28
2022-10-06T07:48:15.602Z,19.29
2022-10-06T07:50:44.599Z,19.34
2022-10-06T07:53:13.526Z,19.37
2022-10-06T07:55:46.579Z,19.37
2022-10-06T08:01:07.239Z,19.50
2022-10-06T08:03:38.959Z,19.61
2022-10-06T08:06:09.823Z,19.66
2022-10-06T08:08:41.313Z,19.63
2022-10-06T08:11:10.394Z,19.62
2022-10-06T08:13:40.487Z,19.62
2022-10-06T08:16:11.806Z,19.72
2022-10-06T08:18:46.447Z,19.70
2022-10-06T08:21:31.083Z,19.75
2022-10-06T08:24:00.284Z,19.75
2022-10-06T08:26:30.235Z,19.74
2022-10-06T08:29:03.469Z,19.63
2022-10-06T08:31:33.182Z,19.61
2022-10-06T08:34:03.098Z,19.58
2022-10-06T08:36:32.622Z,19.55
2022-10-06T08:39:01.281Z,19.61
2022-10-06T08:41:39.834Z,19.64
2022-10-06T08:44:21.979Z,19.65
2022-10-06T08:46:56.818Z,19.70
2022-10-06T08:49:31.275Z,19.71
2022-10-06T08:52:07.033Z,19.70
2022-10-06T08:54:43.063Z,19.67
2022-10-06T08:57:22.443Z,19.71
2022-10-06T08:59:54.491Z,19.83
2022-10-06T09:02:30.259Z,19.90
2022-10-06T09:05:05.085Z,19.94
2022-10-06T09:07:41.262Z,19.99
2022-10-06T09:10:26.015Z,20.10
2022-10-06T09:13:00.758Z,20.17
2022-10-06T09:15:35.569Z,20.27
2022-10-06T09:18:11.037Z,20.33
2022-10-06T09:20:49.641Z,20.43
2022-10-06T09:23:39.307Z,20.52
2022-10-06T09:26:12.224Z,20.68
2022-10-06T09:28:40.843Z,20.80
2022-10-06T09:31:21.586Z,20.95
2022-10-06T09:33:53.282Z,21.08
2022-10-06T09:36:24.270Z,21.20
2022-10-06T09:38:56.874Z,21.24
2022-10-06T09:41:29.842Z,21.37
2022-10-06T09:44:00.033Z,21.30
2022-10-06T09:46:34.263Z,21.29
2022-10-06T09:49:23.789Z,21.26
2022-10-06T09:52:10.141Z,21.27
2022-10-06T09:54:38.918Z,21.32
2022-10-06T09:57:17.291Z,21.38
2022-10-06T09:59:48.188Z,21.48
2022-10-06T10:02:31.840Z,21.54
2022-10-06T10:05:00.496Z,21.61
2022-10-06T10:07:37.058Z,21.72
2022-10-06T10:10:24.311Z,21.92
2022-10-06T10:12:55.945Z,22.09
2022-10-06T10:15:39.349Z,22.30
2022-10-06T10:18:16.963Z,22.38
2022-10-06T10:20:52.656Z,22.47
2022-10-06T10:23:31.581Z,22.54
2022-10-06T10:26:17.736Z,22.49
2022-10-06T10:29:18.986Z,22.47
2022-10-06T10:31:56.421Z,22.51
2022-10-06T10:34:46.572Z,22.64
2022-10-06T10:37:20.327Z,22.83
2022-10-06T10:39:56.843Z,22.92
2022-10-06T10:42:33.919Z,22.94
2022-10-06T10:45:06.628Z,22.89
2022-10-06T10:47:39.504Z,22.75
2022-10-06T10:50:14.634Z,22.64
2022-10-06T10:52:45.649Z,22.59
2022-10-06T10:55:27.290Z,22.50
2022-10-06T10:57:58.795Z,22.49
2022-10-06T11:00:32.556Z,22.48
2022-10-06T11:03:03.065Z,22.43
2022-10-06T11:05:48.371Z,22.46
2022-10-06T11:08:25.196Z,22.52
2022-10-06T11:10:58.991Z,22.59
2022-10-06T11:13:34.278Z,22.64
2022-10-06T11:16:17.256Z,22.64
2022-10-06T11:18:59.319Z,22.68
2022-10-06T11:21:33.016Z,22.69
2022-10-06T11:24:06.128Z,22.66
2022-10-06T11:26:50.406Z,22.62
2022-10-06T11:29:30.995Z,22.64
2022-10-06T11:32:12.314Z,22.71
2022-10-06T11:34:42.484Z,22.76
2022-10-06T11:37:21.404Z,22.77
2022-10-06T11:39:59.053Z,22.72
2022-10-06T11:42:37.934Z,22.74
2022-10-06T11:45:13.942Z,22.70
2022-10-06T11:48:05.986Z,22.69
2022-10-06T11:50:36.620Z,22.75
2022-10-06T11:53:05.916Z,22.60
2022-10-06T11:55:34.905Z,22.53
2022-10-06T11:58:41.550Z,22.50
2022-10-06T12:01:04.124Z,22.48
2022-10-06T12:03:50.050Z,22.46
2022-10-06T12:06:53.292Z,22.54
2022-10-06T12:09:28.827Z,22.66
2022-10-06T12:11:59.338Z,22.82
2022-10-06T12:16:54.593Z,22.83
2022-10-06T12:17:34.508Z,22.96
2022-10-06T12:20:18.944Z,23.08
2022-10-06T12:22:52.513Z,23.20
2022-10-06T12:25:28.312Z,23.37
2022-10-06T12:28:10.992Z,23.31
2022-10-06T12:30:57.597Z,23.26
2022-10-06T12:33:38.774Z,23.29
2022-10-06T12:36:18.793Z,23.32
2022-10-06T12:39:04.752Z,23.39
2022-10-06T12:42:03.964Z,23.43
2022-10-06T12:44:38.602Z,23.36
2022-10-06T12:47:19.202Z,23.30
2022-10-06T12:49:53.916Z,23.35
2022-10-06T12:52:38.263Z,23.44
2022-10-06T12:55:22.520Z,23.56
2022-10-06T12:57:53.518Z,23.66
2022-10-06T13:00:50.063Z,23.72
2022-10-06T13:06:11.267Z,23.73
2022-10-06T13:08:41.550Z,23.70
2022-10-06T13:11:21.641Z,23.64
2022-10-06T13:13:51.471Z,23.74
2022-10-06T13:16:21.977Z,23.80
2022-10-06T13:18:56.384Z,23.83
2022-10-06T13:21:26.151Z,23.77
2022-10-06T13:24:16.978Z,23.75
2022-10-06T13:26:49.130Z,23.81
2022-10-06T13:29:24.339Z,23.90
2022-10-06T13:32:08.447Z,23.98
2022-10-06T13:34:43.612Z,24.02
2022-10-06T13:37:32.220Z,24.04
2022-10-06T13:40:08.910Z,23.98
2022-10-06T13:42:49.408Z,24.00
2022-10-06T13:45:20.593Z,24.09
2022-10-06T13:48:03.257Z,24.02
2022-10-06T13:50:49.524Z,24.12
2022-10-06T13:53:32.414Z,24.26
2022-10-06T13:56:01.197Z,24.43
2022-10-06T13:58:33.340Z,24.55
2022-10-06T14:01:07.411Z,24.75
2022-10-06T14:06:16.759Z,24.58
2022-10-06T14:08:56.335Z,24.68
2022-10-06T14:11:29.274Z,25.17
2022-10-06T14:14:03.068Z,25.79
2022-10-06T14:16:34.953Z,26.15
2022-10-06T14:19:13.181Z,26.34
2022-10-06T14:22:00.425Z,26.24
2022-10-06T14:24:38.547Z,26.48
2022-10-06T14:27:10.265Z,26.67
2022-10-06T14:29:46.701Z,26.82
2022-10-06T14:32:16.665Z,27.16
2022-10-06T14:34:49.852Z,27.27
2022-10-06T14:37:22.798Z,27.58
2022-10-06T14:39:52.904Z,27.85
2022-10-06T14:42:31.561Z,28.01
2022-10-06T14:45:01.828Z,28.06
2022-10-06T14:47:42.258Z,27.86
2022-10-06T14:50:14.784Z,27.65
2022-10-06T14:52:50.782Z,27.23
2022-10-06T14:55:19.583Z,26.77
2022-10-06T14:57:47.763Z,26.35
2022-10-06T15:00:17.036Z,26.12
2022-10-06T15:02:45.879Z,26.17
2022-10-06T15:05:14.717Z,26.21
2022-10-06T15:08:00.771Z,26.09
2022-10-06T15:10:32.696Z,25.77
2022-10-06T15:13:00.836Z,25.41
2022-10-06T15:15:29.742Z,25.10
2022-10-06T15:17:57.948Z,24.89
2022-10-06T15:20:27.080Z,24.75
2022-10-06T15:22:55.511Z,24.54
2022-10-06T15:25:42.182Z,24.46
2022-10-06T15:28:32.449Z,24.27
2022-10-06T15:31:03.773Z,24.31
2022-10-06T15:33:36.815Z,24.22
2022-10-06T15:36:25.037Z,24.00
2022-10-06T15:38:55.524Z,23.88
2022-10-06T15:41:24.789Z,24.00
2022-10-06T15:43:56.158Z,24.08
2022-10-06T15:46:30.296Z,24.14
2022-10-06T15:49:06.002Z,24.15
2022-10-06T15:51:37.392Z,24.17
2022-10-06T15:54:06.155Z,24.23
2022-10-06T15:56:35.241Z,24.23
2022-10-06T15:59:07.248Z,24.19
2022-10-06T16:01:43.192Z,24.14
2022-10-06T16:04:35.149Z,24.09
2022-10-06T16:07:06.354Z,24.04
2022-10-06T16:09:47.110Z,23.93
2022-10-06T16:12:28.626Z,23.90
2022-10-06T16:15:34.372Z,24.02
2022-10-06T16:18:09.340Z,24.00
2022-10-06T16:20:37.451Z,23.98
2022-10-06T16:23:05.512Z,23.98
2022-10-06T16:25:36.516Z,23.81
2022-10-06T16:28:04.790Z,23.59
2022-10-06T16:30:34.555Z,23.58
2022-10-06T16:33:06.928Z,23.75
2022-10-06T16:35:35.637Z,23.84
2022-10-06T16:38:06.857Z,23.85
2022-10-06T16:40:54.956Z,23.78
2022-10-06T16:43:24.731Z,23.67
2022-10-06T16:46:06.290Z,23.64
2022-10-06T16:48:41.357Z,23.78
2022-10-06T16:54:26.922Z,24.44
2022-10-06T16:57:19.360Z,24.54
2022-10-06T16:59:52.288Z,24.34
2022-10-06T17:02:42.156Z,23.94
2022-10-06T17:05:14.669Z,23.55
2022-10-06T17:07:43.275Z,23.23
2022-10-06T17:10:21.111Z,22.95
2022-10-06T17:12:52.724Z,22.70
2022-10-06T17:15:21.539Z,22.59
2022-10-06T17:18:11.539Z,22.38
2022-10-06T17:20:41.892Z,22.28
2022-10-06T17:23:10.954Z,22.07
2022-10-06T17:25:39.900Z,21.96
2022-10-06T17:28:08.275Z,21.77
2022-10-06T17:30:37.491Z,21.64
2022-10-06T17:33:15.403Z,21.55
2022-10-06T17:35:44.353Z,21.49
2022-10-06T17:38:14.228Z,21.38
2022-10-06T17:40:44.776Z,21.30
2022-10-06T17:43:12.927Z,21.25
2022-10-06T17:45:42.114Z,21.22
2022-10-06T17:48:12.409Z,21.18
2022-10-06T17:50:41.559Z,21.17
2022-10-06T17:53:09.554Z,21.11
2022-10-06T17:55:37.693Z,21.13
2022-10-06T17:58:08.337Z,21.05
2022-10-06T18:00:36.559Z,21.02
2022-10-06T18:03:05.215Z,20.95
2022-10-06T18:05:34.812Z,20.86
2022-10-06T18:08:03.095Z,20.83
2022-10-06T18:10:48.357Z,20.83
2022-10-06T18:13:16.559Z,20.76
2022-10-06T18:15:44.915Z,20.75
2022-10-06T18:18:13.715Z,20.78
2022-10-06T18:20:44.592Z,20.69
2022-10-06T18:23:14.551Z,20.65
2022-10-06T18:25:42.958Z,20.65
2022-10-06T18:28:12.179Z,20.57
2022-10-06T18:30:42.766Z,20.54
2022-10-06T18:36:14.710Z,20.42
2022-10-06T18:38:47.522Z,20.36
2022-10-06T18:41:19.616Z,20.33
2022-10-06T18:43:47.806Z,20.33
2022-10-06T18:46:35.184Z,20.30
2022-10-06T18:49:10.749Z,20.30
2022-10-06T18:51:43.415Z,20.26
2022-10-06T18:54:15.949Z,20.28
2022-10-06T18:56:51.228Z,20.37
2022-10-06T18:59:25.231Z,20.39
2022-10-06T19:01:54.631Z,20.39
2022-10-06T19:04:24.293Z,20.39
2022-10-06T19:06:55.632Z,20.39
2022-10-06T19:09:26.895Z,20.40
2022-10-06T19:12:00.109Z,20.44
2022-10-06T19:14:33.237Z,20.37
2022-10-06T19:17:04.220Z,20.37
2022-10-06T19:19:34.098Z,20.33
2022-10-06T19:22:05.583Z,20.35
2022-10-06T19:24:41.607Z,20.36
2022-10-06T19:27:14.122Z,20.30
2022-10-06T19:29:46.263Z,20.33
2022-10-06T19:32:32.436Z,20.28
2022-10-06T19:35:21.157Z,20.32
2022-10-06T19:38:09.379Z,20.31
2022-10-06T19:41:00.246Z,20.32
2022-10-06T19:43:29.689Z,20.21
2022-10-06T19:45:58.725Z,20.18
2022-10-06T19:48:27.776Z,20.21
2022-10-06T19:51:05.453Z,20.16
2022-10-06T19:53:43.461Z,20.19
2022-10-06T19:56:12.279Z,20.20
2022-10-06T19:58:41.536Z,20.17
2022-10-06T20:01:28.004Z,20.18
2022-10-06T20:04:02.322Z,20.13
2022-10-06T20:06:52.756Z,20.09
2022-10-06T20:09:36.660Z,20.08
2022-10-06T20:12:10.159Z,20.17
2022-10-06T20:14:41.217Z,20.17
2022-10-06T20:17:09.483Z,20.16
2022-10-06T20:19:43.289Z,20.19
2022-10-06T20:22:13.490Z,20.20
2022-10-06T20:25:13.458Z,20.18
2022-10-06T20:27:41.916Z,20.25
2022-10-06T20:30:12.731Z,20.26
2022-10-06T20:32:42.225Z,20.26
2022-10-06T20:35:11.283Z,20.22
2022-10-06T20:37:42.044Z,20.28
2022-10-06T20:40:30.253Z,20.26
2022-10-06T20:43:01.043Z,20.23
2022-10-06T20:45:32.540Z,20.20
2022-10-06T20:48:08.796Z,20.20
2022-10-06T20:50:37.734Z,20.24
2022-10-06T20:59:13.755Z,20.03
2022-10-06T21:02:05.269Z,19.99
2022-10-06T21:05:04.098Z,19.91
2022-10-06T21:07:45.426Z,19.86
2022-10-06T21:10:14.409Z,19.85
2022-10-06T21:13:13.893Z,19.77
2022-10-06T21:15:58.131Z,19.71
2022-10-06T21:24:11.199Z,19.59
2022-10-06T21:26:45.017Z,19.58
2022-10-06T21:29:20.611Z,19.63
2022-10-06T21:32:10.316Z,19.64
2022-10-06T21:34:40.352Z,19.72
2022-10-06T21:37:13.702Z,19.71
2022-10-06T21:42:57.808Z,19.74
2022-10-06T21:49:21.526Z,19.69
2022-10-06T21:55:24.676Z,19.65
2022-10-06T22:01:57.584Z,19.67
2022-10-06T22:12:04.157Z,19.58
2022-10-06T22:14:35.755Z,19.53
2022-10-06T22:17:06.493Z,19.55
2022-10-06T22:19:34.585Z,19.60
2022-10-06T22:22:07.842Z,19.65
2022-10-06T22:24:39.854Z,19.67
2022-10-06T22:27:12.049Z,19.80
2022-10-06T22:29:43.932Z,19.86
2022-10-06T22:32:18.310Z,19.92
2022-10-06T22:34:50.629Z,19.93
2022-10-06T22:37:20.391Z,19.90
2022-10-06T22:39:49.122Z,19.95
2022-10-06T22:42:18.431Z,19.98
2022-10-06T22:44:56.115Z,19.91
2022-10-06T22:47:43.762Z,19.95
2022-10-06T22:50:12.025Z,19.92
2022-10-06T22:52:46.836Z,19.91
2022-10-06T22:55:18.947Z,19.88
2022-10-06T22:57:55.946Z,19.83
2022-10-06T23:00:27.934Z,19.84
2022-10-06T23:03:08.075Z,19.84
2022-10-06T23:05:36.958Z,19.80
2022-10-06T23:08:12.147Z,19.73
2022-10-06T23:10:41.020Z,19.75
2022-10-06T23:13:16.358Z,19.75
2022-10-06T23:15:50.235Z,19.78
2022-10-06T23:18:21.997Z,19.80
2022-10-06T23:20:57.526Z,19.84
2022-10-06T23:23:45.675Z,19.84
2022-10-06T23:26:34.490Z,19.91
2022-10-06T23:29:04.788Z,19.89
2022-10-06T23:31:45.012Z,19.93
2022-10-06T23:34:25.731Z,19.85
2022-10-06T23:36:57.014Z,19.87
2022-10-06T23:39:39.748Z,19.77
2022-10-06T23:42:26.154Z,19.74
2022-10-06T23:44:57.854Z,19.76
2022-10-06T23:47:44.885Z,19.74
2022-10-06T23:50:17.776Z,19.76
2022-10-06T23:52:46.080Z,19.72
2022-10-06T23:55:33.639Z,19.73
2022-10-06T23:58:08.108Z,19.76
